createdAt,value
2023-01-29T00:02:04.038Z,12.10
2023-01-29T00:04:31.281Z,11.70
2023-01-29T00:06:58.629Z,13.10
2023-01-29T00:09:25.264Z,12.10
2023-01-29T00:11:52.325Z,13.30
2023-01-29T00:14:19.166Z,12.50
2023-01-29T00:16:45.846Z,14.10
2023-01-29T00:19:12.662Z,13.90
2023-01-29T00:21:39.305Z,15.30
2023-01-29T00:24:06.032Z,13.80
2023-01-29T00:26:32.800Z,13.80
2023-01-29T00:29:02.468Z,13.20
2023-01-29T00:31:30.018Z,15.00
2023-01-29T00:33:56.992Z,16.10
2023-01-29T00:36:24.357Z,14.30
2023-01-29T00:38:58.021Z,13.50
2023-01-29T00:41:47.457Z,13.30
2023-01-29T00:44:33.873Z,13.10
2023-01-29T00:47:00.679Z,13.30
2023-01-29T00:49:27.358Z,13.90
2023-01-29T00:52:12.673Z,12.90
2023-01-29T00:54:39.411Z,13.50
2023-01-29T00:57:06.344Z,13.20
2023-01-29T00:59:33.256Z,11.90
2023-01-29T01:02:19.058Z,12.30
2023-01-29T01:04:46.019Z,13.80
2023-01-29T01:09:58.548Z,13.90
2023-01-29T01:12:25.596Z,13.00
2023-01-29T01:14:52.953Z,11.70
2023-01-29T01:17:19.693Z,12.50
2023-01-29T01:19:47.495Z,13.40
2023-01-29T01:22:14.108Z,10.90
2023-01-29T01:24:40.905Z,13.30
2023-01-29T01:27:08.207Z,13.50
2023-01-29T01:29:35.865Z,13.70
2023-01-29T01:32:02.509Z,16.60
2023-01-29T01:34:30.807Z,13.90
2023-01-29T01:36:58.978Z,11.30
2023-01-29T01:39:25.641Z,14.30
2023-01-29T01:41:55.706Z,11.70
2023-01-29T01:44:51.350Z,14.10
2023-01-29T01:47:43.659Z,13.70
2023-01-29T01:50:16.483Z,12.80
2023-01-29T01:52:46.154Z,12.50
2023-01-29T05:23:29.875Z,19.50
2023-01-29T05:26:36.616Z,16.70
2023-01-29T05:29:13.218Z,19.50
2023-01-29T05:31:46.082Z,22.20
2023-01-29T05:34:42.397Z,21.00
2023-01-29T05:37:13.085Z,21.80
2023-01-29T05:39:39.892Z,21.20
2023-01-29T05:42:06.925Z,20.80
2023-01-29T05:44:33.818Z,21.10
2023-01-29T05:47:02.160Z,20.10
2023-01-29T05:49:29.024Z,19.20
2023-01-29T05:51:55.868Z,20.80
2023-01-29T05:54:22.648Z,20.20
2023-01-29T05:56:49.352Z,20.30
2023-01-29T05:59:16.067Z,21.30
2023-01-29T06:01:43.102Z,18.60
2023-01-29T06:04:09.796Z,16.70
2023-01-29T06:06:40.413Z,18.70
2023-01-29T06:09:06.941Z,17.90
2023-01-29T06:11:33.875Z,20.50
2023-01-29T06:14:01.461Z,18.50
2023-01-29T06:16:28.414Z,17.80
2023-01-29T06:18:55.115Z,20.00
2023-01-29T06:21:21.807Z,19.30
2023-01-29T06:23:48.815Z,19.90
2023-01-29T06:26:15.718Z,18.00
2023-01-29T06:28:43.108Z,18.80
2023-01-29T06:31:37.945Z,19.50
2023-01-29T06:33:56.475Z,19.80
2023-01-29T06:36:23.108Z,20.80
2023-01-29T06:38:49.942Z,20.70
2023-01-29T06:41:18.256Z,20.40
2023-01-29T06:43:45.335Z,20.10
2023-01-29T06:46:12.094Z,22.60
2023-01-29T06:48:38.821Z,21.10
2023-01-29T06:51:06.622Z,18.80
2023-01-29T06:53:34.602Z,21.60
2023-01-29T06:56:01.276Z,21.30
2023-01-29T06:58:28.215Z,21.30
2023-01-29T07:01:04.725Z,21.80
2023-01-29T07:03:32.971Z,22.80
2023-01-29T07:05:59.559Z,19.60
2023-01-29T07:08:26.135Z,23.80
2023-01-29T07:10:52.753Z,23.70
2023-01-29T07:13:19.771Z,19.40
2023-01-29T07:15:46.430Z,20.10
2023-01-29T07:18:14.180Z,24.10
2023-01-29T07:20:41.413Z,21.80
2023-01-29T07:23:12.101Z,22.90
2023-01-29T07:28:06.458Z,20.90
2023-01-29T07:30:33.135Z,19.30
2023-01-29T07:33:07.726Z,22.00
2023-01-29T07:35:42.231Z,20.90
2023-01-29T07:38:09.437Z,23.50
2023-01-29T07:40:38.314Z,25.80
2023-01-29T07:43:06.280Z,23.00
2023-01-29T07:45:34.748Z,24.20
2023-01-29T07:48:01.501Z,23.70
2023-01-29T07:50:28.300Z,21.70
2023-01-29T07:52:55.218Z,22.60
2023-01-29T07:55:22.001Z,22.80
2023-01-29T07:57:57.428Z,21.00
2023-01-29T08:00:24.289Z,25.20
2023-01-29T08:02:51.002Z,23.20
2023-01-29T08:05:19.238Z,23.70
2023-01-29T08:07:49.345Z,24.50
2023-01-29T08:10:24.255Z,20.80
2023-01-29T08:12:56.339Z,23.30
2023-01-29T08:15:23.508Z,22.20
2023-01-29T08:20:37.626Z,24.00
2023-01-29T08:23:07.832Z,22.90
2023-01-29T08:25:34.924Z,21.60
2023-01-29T08:28:01.571Z,23.40
2023-01-29T08:30:30.358Z,20.80
2023-01-29T08:32:56.965Z,22.80
2023-01-29T08:35:24.122Z,20.10
2023-01-29T08:37:54.658Z,22.80
2023-01-29T08:40:21.546Z,25.60
2023-01-29T08:42:48.163Z,22.80
2023-01-29T08:45:15.024Z,23.50
2023-01-29T08:47:48.560Z,25.70
2023-01-29T08:50:16.717Z,23.50
2023-01-29T08:52:43.971Z,25.40
2023-01-29T08:55:12.167Z,26.90
2023-01-29T08:57:39.015Z,22.20
2023-01-29T09:00:06.824Z,25.10
2023-01-29T09:02:33.555Z,23.40
2023-01-29T09:05:00.639Z,24.90
2023-01-29T09:07:28.790Z,25.10
2023-01-29T09:09:55.788Z,20.20
2023-01-29T09:12:22.385Z,24.60
2023-01-29T09:14:49.069Z,24.10
2023-01-29T09:17:15.701Z,24.20
2023-01-29T09:19:42.382Z,26.20
2023-01-29T09:22:10.987Z,23.20
2023-01-29T09:24:38.663Z,25.50
2023-01-29T09:27:06.221Z,22.40
2023-01-29T09:29:35.800Z,21.80
2023-01-29T09:32:07.011Z,23.80
2023-01-29T09:34:37.326Z,19.90
2023-01-29T09:37:04.085Z,22.30
2023-01-29T09:39:30.650Z,21.70
2023-01-29T09:42:08.020Z,21.10
2023-01-29T09:45:03.341Z,22.10
2023-01-29T09:47:31.450Z,23.20
2023-01-29T09:50:05.122Z,20.30
2023-01-29T14:13:11.420Z,21.00
2023-01-29T14:15:40.158Z,17.40
2023-01-29T14:18:08.497Z,16.50
2023-01-29T14:20:48.819Z,17.40
2023-01-29T14:23:44.683Z,15.60
2023-01-29T14:26:26.866Z,16.80
2023-01-29T14:29:00.976Z,17.40
2023-01-29T14:31:59.185Z,15.70
2023-01-29T14:34:35.400Z,15.50
2023-01-29T14:37:26.504Z,15.90
2023-01-29T14:39:56.194Z,16.20
2023-01-29T14:42:25.094Z,18.20
2023-01-29T14:44:54.765Z,18.30
2023-01-29T14:47:38.551Z,19.50
2023-01-29T14:50:35.179Z,16.00
2023-01-29T14:53:45.235Z,18.90
2023-01-29T14:56:17.530Z,18.90
2023-01-29T14:59:18.076Z,19.30
2023-01-29T15:01:53.040Z,18.50
2023-01-29T15:04:25.939Z,16.90
2023-01-29T15:07:05.503Z,15.70
2023-01-29T15:09:41.961Z,16.40
2023-01-29T15:12:31.318Z,23.90
2023-01-29T15:15:37.675Z,21.70
2023-01-29T15:18:08.639Z,27.90
2023-01-29T15:20:38.572Z,29.50
2023-01-29T15:23:28.624Z,23.10
2023-01-29T15:25:58.767Z,21.30
2023-01-29T15:28:26.872Z,22.30
2023-01-29T15:30:57.164Z,18.80
2023-01-29T15:33:25.903Z,18.70
2023-01-29T15:36:06.698Z,17.40
2023-01-29T15:38:35.736Z,16.40
2023-01-29T15:41:18.497Z,17.70
2023-01-29T15:46:22.869Z,15.70
2023-01-29T15:48:51.652Z,17.20
2023-01-29T15:51:24.067Z,15.50
2023-01-29T15:53:57.392Z,18.20
2023-01-29T15:56:29.702Z,17.10
2023-01-29T16:01:27.519Z,18.80
2023-01-29T16:03:59.120Z,17.00
2023-01-29T16:06:27.436Z,25.60
2023-01-29T16:08:55.680Z,24.60
2023-01-29T16:11:23.924Z,21.80
2023-01-29T16:13:52.029Z,22.80
2023-01-29T16:16:29.196Z,20.10
2023-01-29T16:19:00.775Z,17.40
2023-01-29T16:21:37.445Z,23.30
2023-01-29T16:24:11.875Z,19.10
2023-01-29T16:26:43.458Z,17.70
2023-01-29T16:29:13.447Z,22.60
2023-01-29T16:31:42.537Z,20.60
2023-01-29T16:34:34.600Z,22.70
2023-01-29T16:37:04.474Z,19.20
2023-01-29T16:39:38.289Z,16.90
2023-01-29T16:42:13.085Z,21.30
2023-01-29T16:44:41.253Z,19.80
2023-01-29T16:47:33.017Z,21.10
2023-01-29T16:50:20.035Z,24.20
2023-01-29T16:53:33.322Z,21.20
2023-01-29T16:56:02.947Z,21.00
2023-01-29T16:58:31.229Z,17.90
2023-01-29T17:01:05.320Z,18.00
2023-01-29T17:03:34.099Z,18.70
2023-01-29T17:06:12.026Z,21.60
2023-01-29T17:08:43.815Z,19.10
2023-01-29T17:11:13.100Z,17.20
2023-01-29T17:13:42.983Z,17.80
2023-01-29T17:16:21.358Z,15.70
2023-01-29T17:18:50.145Z,15.00
2023-01-29T17:21:18.221Z,16.60
2023-01-29T17:23:46.369Z,14.70
2023-01-29T17:26:14.783Z,15.40
2023-01-29T17:28:42.816Z,14.90
2023-01-29T17:31:10.927Z,12.40
2023-01-29T17:33:42.937Z,13.20
2023-01-29T17:36:12.582Z,12.40
2023-01-29T17:38:43.307Z,11.90
2023-01-29T17:41:27.352Z,13.00
2023-01-29T17:43:55.932Z,13.70
2023-01-29T17:46:28.192Z,12.60
2023-01-29T17:48:56.352Z,15.00
2023-01-29T17:51:25.093Z,14.30
2023-01-29T17:53:53.328Z,14.70
2023-01-29T21:51:38.675Z,9.00
2023-01-29T21:54:07.267Z,9.40
2023-01-29T21:56:35.371Z,8.90
2023-01-29T21:59:03.352Z,8.70
2023-01-29T22:01:41.471Z,9.00
2023-01-29T22:04:09.844Z,9.70
2023-01-29T22:06:38.395Z,10.00
2023-01-29T22:09:07.509Z,11.10
2023-01-29T22:11:36.288Z,10.70
2023-01-29T22:14:05.081Z,9.80
2023-01-29T22:16:33.436Z,10.60
2023-01-29T22:19:01.571Z,11.30
2023-01-29T22:21:29.904Z,10.20
2023-01-29T22:23:58.078Z,10.80
2023-01-29T22:26:26.350Z,12.10
2023-01-29T22:28:54.524Z,10.50
2023-01-29T22:31:22.598Z,10.50
2023-01-29T22:33:54.357Z,10.30
2023-01-29T22:36:22.373Z,10.60
2023-01-29T22:38:50.601Z,9.80
2023-01-29T22:41:18.681Z,10.10
2023-01-29T22:43:46.747Z,9.60
2023-01-29T22:46:14.951Z,8.30
2023-01-29T22:48:45.065Z,9.00
2023-01-29T22:51:13.970Z,8.00
2023-01-29T22:53:52.864Z,8.70
2023-01-29T22:56:25.299Z,9.10
2023-01-29T22:58:55.072Z,9.40
2023-01-29T23:01:28.009Z,11.60
2023-01-29T23:03:56.718Z,10.60
2023-01-29T23:06:25.017Z,9.10
2023-01-29T23:08:53.068Z,9.70
2023-01-29T23:11:21.616Z,10.10
2023-01-29T23:13:54.309Z,10.00
2023-01-29T23:16:26.261Z,10.80
2023-01-29T23:18:56.229Z,9.20
2023-01-29T23:21:25.277Z,8.70
2023-01-29T23:23:58.344Z,9.80
2023-01-29T23:26:45.244Z,9.90
2023-01-29T23:29:13.449Z,9.50
2023-01-29T23:31:41.633Z,10.90
2023-01-29T23:34:09.965Z,9.90
2023-01-29T23:36:38.131Z,10.10
2023-01-29T23:39:06.479Z,10.50
2023-01-29T23:41:35.559Z,10.40
2023-01-29T23:44:04.470Z,9.50
2023-01-29T23:46:32.685Z,9.20
2023-01-29T23:49:00.930Z,9.00
2023-01-29T23:51:29.211Z,9.50
2023-01-29T23:53:57.399Z,8.40
2023-01-29T23:56:25.659Z,10.10
2023-01-29T23:58:56.820Z,9.70
